createdAt,value
2017-09-23T00:02:02.512Z,14.57
2017-09-23T00:04:30.177Z,13.97
2017-09-23T00:06:57.826Z,13.50
2017-09-23T00:09:25.447Z,15.13
2017-09-23T00:11:53.881Z,14.30
2017-09-23T00:14:21.507Z,15.70
2017-09-23T00:16:49.138Z,15.97
2017-09-23T00:19:17.617Z,14.60
2017-09-23T00:21:46.047Z,16.50
2017-09-23T00:24:13.703Z,15.30
2017-09-23T00:26:41.311Z,16.50
2017-09-23T00:29:09.840Z,14.70
2017-09-23T00:31:37.462Z,15.30
2017-09-23T00:34:05.105Z,16.63
2017-09-23T00:36:32.828Z,13.67
2017-09-23T00:39:00.464Z,15.73
2017-09-23T00:41:28.171Z,14.93
2017-09-23T00:43:55.862Z,16.20
2017-09-23T00:46:23.655Z,16.70
2017-09-23T00:48:51.279Z,16.10
2017-09-23T00:51:19.735Z,14.63
2017-09-23T00:53:47.420Z,17.00
2017-09-23T00:56:15.091Z,15.77
2017-09-23T00:58:42.751Z,14.83
2017-09-23T01:01:10.400Z,15.60
2017-09-23T01:03:38.131Z,14.97
2017-09-23T01:06:05.743Z,17.50
2017-09-23T01:08:33.375Z,16.00
2017-09-23T01:11:01.839Z,13.93
2017-09-23T01:13:29.465Z,13.83
2017-09-23T01:15:57.143Z,14.90
2017-09-23T01:18:24.787Z,15.87
2017-09-23T01:20:52.499Z,15.60
2017-09-23T01:23:20.920Z,14.57
2017-09-23T01:25:48.627Z,15.00
2017-09-23T01:28:17.091Z,13.50
2017-09-23T01:30:44.846Z,14.97
2017-09-23T01:33:12.536Z,14.57
2017-09-23T01:35:40.951Z,13.77
2017-09-23T01:38:08.709Z,15.57
2017-09-23T01:40:36.348Z,14.43
2017-09-23T01:43:04.795Z,14.60
2017-09-23T01:45:32.456Z,12.40
2017-09-23T01:48:00.077Z,12.83
2017-09-23T01:50:27.723Z,15.23
2017-09-23T01:52:55.374Z,15.43
2017-09-23T01:55:23.102Z,14.73
2017-09-23T01:57:50.768Z,14.23
2017-09-23T02:00:18.389Z,13.37
2017-09-23T02:02:46.020Z,12.83
2017-09-23T02:05:13.637Z,14.17
2017-09-23T02:07:41.296Z,13.30
2017-09-23T02:10:08.922Z,14.23
2017-09-23T02:12:36.583Z,13.90
2017-09-23T02:15:04.208Z,12.23
2017-09-23T02:17:32.599Z,12.53
2017-09-23T02:20:00.253Z,13.73
2017-09-23T02:22:27.858Z,13.13
2017-09-23T02:24:55.503Z,12.70
2017-09-23T02:27:23.120Z,11.97
2017-09-23T02:29:51.559Z,12.87
2017-09-23T02:32:19.193Z,12.87
2017-09-23T02:34:46.800Z,12.60
2017-09-23T02:37:14.456Z,11.50
2017-09-23T02:39:42.902Z,11.20
2017-09-23T02:42:10.539Z,12.00
2017-09-23T02:44:38.174Z,12.23
2017-09-23T02:47:06.616Z,12.17
2017-09-23T02:49:34.233Z,12.43
2017-09-23T02:52:01.857Z,12.70
2017-09-23T02:54:30.295Z,12.50
2017-09-23T02:56:57.906Z,13.17
2017-09-23T02:59:26.303Z,12.83
2017-09-23T03:01:53.920Z,13.33
2017-09-23T03:04:21.671Z,12.57
2017-09-23T03:06:49.288Z,12.03
2017-09-23T03:09:16.893Z,12.90
2017-09-23T03:11:44.539Z,11.23
2017-09-23T03:14:12.139Z,12.80
2017-09-23T03:16:40.567Z,11.00
2017-09-23T03:19:08.188Z,11.00
2017-09-23T03:21:35.868Z,11.50
2017-09-23T03:24:03.495Z,11.50
2017-09-23T03:26:31.872Z,11.20
2017-09-23T03:29:00.284Z,12.20
2017-09-23T03:31:27.908Z,11.97
2017-09-23T03:33:56.325Z,10.93
2017-09-23T03:36:23.939Z,11.67
2017-09-23T03:38:52.423Z,11.63
2017-09-23T03:41:20.820Z,13.20
2017-09-23T03:43:48.447Z,10.77
2017-09-23T03:46:16.107Z,12.53
2017-09-23T03:48:43.734Z,11.93
2017-09-23T03:51:11.380Z,11.70
2017-09-23T03:53:39.009Z,10.07
